Time;durP1;ratioP1;P1;durP2;ratioP2;P2;SDS_P1;SDS_P2;PMS_P1;PMS_P2;Temp;Humidity;BMP_temperature;BMP_pressure;BME280_temperature;BME280_humidity;BME280_pressure;Samples;Min_cycle;Max_cycle;Signal;HPM_P1;HPM_P2
2023/07/13 00:01:49;;;;;;;5.38;1.80;;;;;;;17.42;100.00;100683.19;5010789;28;20578;-61
2023/07/13 00:04:17;;;;;;;3.30;1.70;;;;;;;17.38;100.00;100677.34;5009938;28;20100;-61
2023/07/13 00:06:45;;;;;;;6.15;1.60;;;;;;;17.25;100.00;100680.84;5010021;28;20050;-61
2023/07/13 00:09:16;;;;;;;6.45;1.70;;;;;;;17.19;100.00;100683.53;5009872;28;20119;-60
2023/07/13 00:11:44;;;;;;;7.22;2.30;;;;;;;17.11;100.00;100676.44;5010795;28;20050;-60
2023/07/13 00:14:11;;;;;;;6.18;1.88;;;;;;;17.12;100.00;100681.63;5010228;28;20049;-60
2023/07/13 00:16:40;;;;;;;9.27;2.22;;;;;;;17.09;100.00;100678.50;5009713;28;20053;-59
2023/07/13 00:19:07;;;;;;;6.70;2.10;;;;;;;17.00;100.00;100680.56;5010240;28;20054;-59
2023/07/13 00:21:34;;;;;;;5.43;2.33;;;;;;;16.96;100.00;100681.19;5009010;28;20041;-60
2023/07/13 00:24:01;;;;;;;4.57;2.10;;;;;;;16.82;100.00;100683.84;5009769;28;20077;-60
2023/07/13 00:26:28;;;;;;;6.30;2.40;;;;;;;16.80;100.00;100690.50;5009712;28;20465;-60
2023/07/13 00:28:55;;;;;;;6.63;2.20;;;;;;;16.72;100.00;100683.38;5009851;28;20058;-61
2023/07/13 00:31:21;;;;;;;8.65;2.22;;;;;;;16.70;100.00;100685.44;5021309;28;20041;-60
2023/07/13 00:33:49;;;;;;;7.80;2.17;;;;;;;16.74;100.00;100692.13;5028911;28;20057;-60
2023/07/13 00:36:15;;;;;;;7.13;2.15;;;;;;;16.73;100.00;100687.75;5029519;28;20056;-60
2023/07/13 00:38:42;;;;;;;6.63;2.13;;;;;;;16.84;100.00;100691.75;5028610;28;20456;-60
2023/07/13 00:41:10;;;;;;;5.38;2.17;;;;;;;16.95;100.00;100690.34;5029288;28;20080;-61
2023/07/13 00:43:37;;;;;;;5.57;2.00;;;;;;;16.85;100.00;100688.88;5028247;28;20472;-61
2023/07/13 00:46:31;;;;;;;7.65;2.60;;;;;;;16.68;100.00;100682.13;5029533;28;20123;-60
2023/07/13 00:49:04;;;;;;;8.20;2.30;;;;;;;16.51;100.00;100678.91;5025852;28;20120;-60
2023/07/13 00:51:40;;;;;;;6.10;2.10;;;;;;;16.43;100.00;100687.97;5028221;28;20049;-61
2023/07/13 00:54:11;;;;;;;3.92;1.83;;;;;;;16.37;100.00;100691.50;5028878;28;20103;-61
2023/07/13 00:56:41;;;;;;;5.47;1.92;;;;;;;16.25;100.00;100694.97;5028534;28;20041;-62
2023/07/13 00:59:10;;;;;;;8.00;2.22;;;;;;;16.14;100.00;100686.34;5029435;28;20053;-60
2023/07/13 01:01:39;;;;;;;10.18;2.80;;;;;;;16.06;100.00;100691.94;5028099;28;20099;-60
2023/07/13 01:04:07;;;;;;;5.32;2.60;;;;;;;15.99;100.00;100693.75;5028392;28;20053;-61
2023/07/13 01:07:11;;;;;;;6.45;2.55;;;;;;;15.89;100.00;100696.78;5028678;28;20117;-61
2023/07/13 01:09:44;;;;;;;6.70;2.40;;;;;;;15.80;100.00;100689.00;5034206;28;20050;-61
2023/07/13 01:12:12;;;;;;;6.28;2.47;;;;;;;15.74;100.00;100689.78;5033361;28;20050;-61
2023/07/13 01:14:40;;;;;;;8.00;2.72;;;;;;;15.67;100.00;100689.72;5033768;28;20049;-61
2023/07/13 01:17:10;;;;;;;9.38;2.38;;;;;;;15.63;100.00;100707.38;5033226;28;20123;-60
2023/07/13 01:19:39;;;;;;;9.15;2.35;;;;;;;15.61;100.00;100701.31;5048683;28;20045;-61
2023/07/13 01:22:11;;;;;;;5.68;2.50;;;;;;;15.54;100.00;100698.53;5033121;28;20041;-61
2023/07/13 01:24:40;;;;;;;6.45;2.17;;;;;;;15.49;100.00;100704.50;5032902;28;20128;-61
2023/07/13 01:27:08;;;;;;;7.43;2.60;;;;;;;15.47;100.00;100705.75;5032776;28;20444;-61
2023/07/13 01:29:41;;;;;;;6.45;2.25;;;;;;;15.43;100.00;100697.19;5032526;28;20508;-61
2023/07/13 01:32:11;;;;;;;8.30;2.20;;;;;;;15.41;100.00;100701.94;5014680;28;20156;-61
2023/07/13 01:34:37;;;;;;;6.20;2.38;;;;;;;15.42;100.00;100694.66;5013339;28;20050;-60
2023/07/13 01:37:05;;;;;;;5.20;2.42;;;;;;;15.42;100.00;100695.50;5012948;28;20050;-61
2023/07/13 01:39:32;;;;;;;7.05;2.17;;;;;;;15.41;100.00;100691.13;5012765;28;20042;-61
2023/07/13 01:41:58;;;;;;;5.70;2.17;;;;;;;15.36;100.00;100698.13;5012654;28;20054;-60
2023/07/13 01:44:25;;;;;;;5.30;2.20;;;;;;;15.32;100.00;100692.28;5012390;28;20053;-61
2023/07/13 01:46:52;;;;;;;4.25;1.70;;;;;;;15.28;100.00;100696.38;5010965;28;20559;-62
2023/07/13 01:49:19;;;;;;;6.00;2.20;;;;;;;15.29;100.00;100684.53;5012765;28;20046;-61
2023/07/13 01:51:45;;;;;;;8.07;2.47;;;;;;;15.27;100.00;100688.50;5012743;28;20054;-61
2023/07/13 01:54:12;;;;;;;6.55;2.15;;;;;;;15.20;100.00;100691.13;5013436;28;20045;-60
2023/07/13 01:56:39;;;;;;;6.35;2.35;;;;;;;15.17;100.00;100695.03;5012413;28;20045;-61
2023/07/13 01:59:06;;;;;;;8.95;2.05;;;;;;;15.10;100.00;100698.69;5012040;28;20100;-60
2023/07/13 02:01:32;;;;;;;3.88;1.73;;;;;;;15.08;100.00;100698.88;5012058;28;20096;-61
2023/07/13 02:03:59;;;;;;;5.65;2.25;;;;;;;15.09;100.00;100702.44;5012214;28;20076;-61
2023/07/13 02:06:26;;;;;;;6.15;2.05;;;;;;;15.11;100.00;100695.78;5012435;28;20042;-61
2023/07/13 02:08:53;;;;;;;3.25;2.30;;;;;;;15.09;100.00;100699.72;5012035;28;20046;-61
2023/07/13 02:11:20;;;;;;;4.40;2.20;;;;;;;15.06;100.00;100698.25;5012219;28;20556;-61
2023/07/13 02:13:46;;;;;;;8.57;2.40;;;;;;;15.03;100.00;100697.78;5011077;28;20066;-61
2023/07/13 02:16:13;;;;;;;6.05;2.42;;;;;;;15.04;100.00;100691.34;5012078;28;20073;-63
2023/07/13 02:18:40;;;;;;;6.25;2.25;;;;;;;15.01;100.00;100690.69;5013394;28;20410;-62
2023/07/13 02:21:07;;;;;;;3.67;1.77;;;;;;;14.99;100.00;100697.31;5010745;28;20100;-61
2023/07/13 02:23:33;;;;;;;5.68;2.30;;;;;;;14.99;100.00;100681.94;5012363;28;20096;-61
2023/07/13 02:26:02;;;;;;;6.00;2.53;;;;;;;14.98;100.00;100671.31;5011317;28;20053;-61
2023/07/13 02:28:29;;;;;;;5.18;2.22;;;;;;;14.96;100.00;100663.41;5011909;28;20129;-61
2023/07/13 02:30:55;;;;;;;4.10;1.83;;;;;;;15.01;100.00;100666.38;5019508;28;20127;-62
2023/07/13 02:33:22;;;;;;;6.30;2.05;;;;;;;14.97;100.00;100673.19;5031197;28;20416;-61
2023/07/13 02:35:48;;;;;;;8.90;2.03;;;;;;;14.94;100.00;100675.44;5031744;28;20061;-61
2023/07/13 02:38:15;;;;;;;5.25;2.30;;;;;;;14.89;100.00;100672.47;5030847;28;20493;-61
2023/07/13 02:40:41;;;;;;;7.05;2.25;;;;;;;14.90;100.00;100676.84;5032478;28;20053;-60
2023/07/13 02:43:08;;;;;;;8.35;2.28;;;;;;;14.88;100.00;100689.72;5031131;28;20080;-60
2023/07/13 02:45:34;;;;;;;4.53;2.03;;;;;;;14.85;100.00;100682.81;5030762;28;20515;-61
2023/07/13 02:48:01;;;;;;;4.93;2.40;;;;;;;14.83;100.00;100687.56;5030918;28;20049;-60
2023/07/13 02:50:27;;;;;;;2.50;2.05;;;;;;;14.81;100.00;100691.47;5031269;28;20148;-60
2023/07/13 02:52:54;;;;;;;6.50;2.92;;;;;;;14.79;100.00;100696.25;5030463;28;20084;-60
2023/07/13 02:55:20;;;;;;;8.60;2.35;;;;;;;14.72;100.00;100707.78;5030874;28;20046;-60
2023/07/13 02:57:47;;;;;;;6.90;2.25;;;;;;;14.73;100.00;100698.66;5032202;28;20119;-60
2023/07/13 03:00:16;;;;;;;8.77;2.67;;;;;;;14.70;100.00;100693.63;5030561;28;20099;-61
2023/07/13 03:02:42;;;;;;;4.30;2.10;;;;;;;14.71;100.00;100706.13;5031298;28;20072;-62
2023/07/13 03:05:12;;;;;;;5.72;2.25;;;;;;;14.68;100.00;100719.13;5031867;28;20128;-60
2023/07/13 03:07:39;;;;;;;5.88;2.50;;;;;;;14.64;100.00;100724.06;5031134;28;20468;-60
2023/07/13 03:10:06;;;;;;;8.32;2.10;;;;;;;14.64;100.00;100713.28;5031212;28;20468;-60
2023/07/13 03:12:33;;;;;;;4.88;1.90;;;;;;;14.60;100.00;100713.81;5030438;28;20136;-60
2023/07/13 03:14:59;;;;;;;8.10;2.42;;;;;;;14.65;100.00;100722.19;5029671;28;20123;-60
2023/07/13 03:17:26;;;;;;;7.68;2.78;;;;;;;14.56;100.00;100718.75;5030587;28;20045;-61
2023/07/13 03:19:53;;;;;;;4.95;2.50;;;;;;;14.58;100.00;100724.81;5030172;28;20489;-60
2023/07/13 03:22:19;;;;;;;4.88;2.38;;;;;;;14.66;100.00;100716.59;5029762;28;20045;-60
2023/07/13 03:24:46;;;;;;;6.85;2.55;;;;;;;14.64;100.00;100721.38;5030619;28;20049;-60
2023/07/13 03:27:13;;;;;;;6.50;2.55;;;;;;;14.72;100.00;100729.41;5030710;28;20571;-62
2023/07/13 03:29:40;;;;;;;4.80;2.70;;;;;;;14.76;100.00;100727.16;5030982;28;20041;-61
2023/07/13 03:32:06;;;;;;;7.20;2.90;;;;;;;14.75;100.00;100726.31;5011908;28;20050;-60
2023/07/13 03:34:33;;;;;;;6.30;2.70;;;;;;;14.74;100.00;100730.06;5010062;28;20623;-60
2023/07/13 03:37:00;;;;;;;5.30;2.10;;;;;;;14.76;100.00;100736.09;5011415;28;20046;-60
2023/07/13 03:39:26;;;;;;;5.38;2.30;;;;;;;14.82;100.00;100736.38;5009501;28;20053;-62
2023/07/13 03:41:53;;;;;;;6.03;1.98;;;;;;;14.89;100.00;100745.41;5009762;28;20042;-60
2023/07/13 03:44:19;;;;;;;10.38;4.32;;;;;;;14.99;100.00;100745.97;5009919;28;20046;-61
2023/07/13 03:46:46;;;;;;;6.28;2.50;;;;;;;15.16;100.00;100747.41;5011012;28;20046;-61
2023/07/13 03:49:12;;;;;;;5.45;2.58;;;;;;;15.35;100.00;100745.94;5010637;28;20049;-62
2023/07/13 03:51:39;;;;;;;4.38;2.00;;;;;;;15.49;100.00;100742.34;5010744;28;20522;-62
2023/07/13 03:54:06;;;;;;;5.70;2.15;;;;;;;15.62;100.00;100754.34;5010512;28;20401;-61
2023/07/13 03:56:33;;;;;;;6.45;2.75;;;;;;;15.43;100.00;100750.41;5011616;28;20096;-61
2023/07/13 03:59:00;;;;;;;5.55;2.78;;;;;;;15.49;100.00;100750.47;5011422;28;20100;-59
2023/07/13 04:01:27;;;;;;;6.18;2.65;;;;;;;15.91;100.00;100751.53;5011449;28;20076;-61
2023/07/13 04:03:53;;;;;;;6.13;2.00;;;;;;;16.11;100.00;100745.44;5011793;28;20483;-61
2023/07/13 04:06:27;;;;;;;5.45;2.05;;;;;;;16.27;100.00;100750.59;5011095;28;20132;-61
2023/07/13 04:08:59;;;;;;;6.22;1.90;;;;;;;16.36;100.00;100753.97;5011480;28;20076;-60
2023/07/13 04:11:31;;;;;;;5.32;2.00;;;;;;;16.45;100.00;100752.78;5011401;28;20413;-60
2023/07/13 04:13:58;;;;;;;2.83;1.85;;;;;;;16.49;100.00;100758.63;5011268;28;20050;-61
2023/07/13 04:16:25;;;;;;;3.83;1.85;;;;;;;16.51;100.00;100754.75;5011332;28;20053;-61
2023/07/13 04:18:58;;;;;;;5.80;1.73;;;;;;;16.63;100.00;100757.72;5011395;28;20053;-61
2023/07/13 04:21:27;;;;;;;3.33;1.95;;;;;;;16.70;100.00;100755.88;5010909;28;20080;-61
2023/07/13 04:23:54;;;;;;;3.80;1.80;;;;;;;16.74;100.00;100751.72;5010926;28;20107;-61
2023/07/13 04:26:22;;;;;;;5.45;1.88;;;;;;;16.76;100.00;100754.25;5011163;28;20472;-60
2023/07/13 04:28:49;;;;;;;4.35;1.90;;;;;;;16.78;100.00;100755.72;5011220;28;20563;-60
2023/07/13 04:31:16;;;;;;;4.93;2.17;;;;;;;16.80;100.00;100755.53;5021810;28;20072;-60
2023/07/13 04:33:43;;;;;;;5.45;1.80;;;;;;;16.83;100.00;100761.38;5031371;28;20045;-60
2023/07/13 04:36:14;;;;;;;3.05;1.85;;;;;;;16.87;100.00;100764.50;5030634;28;20041;-62
2023/07/13 04:38:41;;;;;;;4.50;1.83;;;;;;;16.87;100.00;100767.22;5031386;28;20049;-61
2023/07/13 04:41:08;;;;;;;4.07;1.90;;;;;;;16.90;100.00;100764.13;5030916;28;20049;-61
2023/07/13 04:43:35;;;;;;;6.78;2.10;;;;;;;16.92;100.00;100775.59;5030344;28;20049;-62
2023/07/13 04:46:09;;;;;;;3.92;1.92;;;;;;;16.90;100.00;100772.25;5030646;28;20057;-62
2023/07/13 04:48:37;;;;;;;7.72;1.85;;;;;;;16.96;100.00;100774.16;5030453;28;20052;-62
2023/07/13 04:51:04;;;;;;;5.35;1.88;;;;;;;16.91;100.00;100768.50;5030113;28;20497;-62
2023/07/13 04:53:34;;;;;;;5.28;2.33;;;;;;;16.86;100.00;100768.28;5029705;28;20049;-62
2023/07/13 04:56:01;;;;;;;5.80;2.20;;;;;;;16.97;100.00;100775.00;5030146;28;20053;-61
2023/07/13 04:58:28;;;;;;;3.33;1.63;;;;;;;16.85;100.00;100769.28;5029959;28;20073;-62
2023/07/13 05:01:02;;;;;;;4.03;1.75;;;;;;;16.92;100.00;100782.88;5029588;28;20123;-62
2023/07/13 05:03:29;;;;;;;4.13;1.98;;;;;;;16.90;100.00;100778.50;5027720;28;20505;-60
2023/07/13 05:06:01;;;;;;;7.53;2.00;;;;;;;16.90;100.00;100777.66;5029438;28;20779;-61
2023/07/13 05:08:28;;;;;;;4.57;1.50;;;;;;;16.88;100.00;100783.28;5028725;28;20409;-60
2023/07/13 05:10:55;;;;;;;9.40;2.38;;;;;;;16.96;100.00;100793.13;5028960;28;20049;-61
2023/07/13 05:13:23;;;;;;;5.25;2.13;;;;;;;16.97;100.00;100793.97;5029869;28;20099;-60
2023/07/13 05:16:19;;;;;;;8.77;2.47;;;;;;;17.05;100.00;100788.38;5029873;28;20132;-62
2023/07/13 05:18:45;;;;;;;9.45;3.08;;;;;;;17.09;100.00;100785.06;5023372;28;20064;-61
2023/07/13 05:21:12;;;;;;;4.70;1.90;;;;;;;17.07;100.00;100789.00;5010099;28;20096;-61
2023/07/13 05:23:41;;;;;;;5.93;2.20;;;;;;;17.13;100.00;100797.19;5008540;28;20065;-61
2023/07/13 05:29:50;;;;;;;9.45;2.33;;;;;;;16.89;100.00;100797.69;5009881;28;20084;-59
2023/07/13 05:32:18;;;;;;;6.35;2.22;;;;;;;16.90;100.00;100799.34;5027951;28;20456;-60
2023/07/13 05:34:44;;;;;;;4.78;2.03;;;;;;;16.93;100.00;100798.13;5030111;28;20095;-61
2023/07/13 05:37:11;;;;;;;9.57;2.55;;;;;;;16.95;100.00;100805.00;5030171;28;20072;-61
2023/07/13 05:39:37;;;;;;;6.78;2.20;;;;;;;16.92;100.00;100810.84;5028890;28;20095;-62
2023/07/13 05:42:04;;;;;;;6.63;2.10;;;;;;;16.92;100.00;100813.53;5029485;28;20053;-61
2023/07/13 05:44:31;;;;;;;6.25;2.38;;;;;;;16.96;100.00;100809.41;5029295;28;20559;-61
2023/07/13 05:46:57;;;;;;;6.03;2.20;;;;;;;16.94;100.00;100814.16;5029661;28;20076;-61
2023/07/13 05:49:24;;;;;;;9.07;2.47;;;;;;;17.07;100.00;100806.09;5029486;28;20163;-61
2023/07/13 05:51:50;;;;;;;5.18;1.85;;;;;;;17.19;100.00;100810.94;5029537;28;20456;-61
2023/07/13 05:54:17;;;;;;;7.68;1.75;;;;;;;17.10;100.00;100813.84;5028876;28;20064;-61
2023/07/13 05:56:44;;;;;;;5.57;2.22;;;;;;;17.20;100.00;100813.47;5033670;28;20065;-61
2023/07/13 05:59:10;;;;;;;5.03;1.75;;;;;;;17.27;100.00;100805.38;5033377;28;20512;-63
2023/07/13 06:01:37;;;;;;;2.88;1.63;;;;;;;17.39;100.00;100813.78;5032756;28;20045;-61
2023/07/13 06:04:03;;;;;;;6.78;1.85;;;;;;;17.48;100.00;100816.13;5032459;28;20053;-61
2023/07/13 06:06:30;;;;;;;4.82;2.15;;;;;;;17.41;100.00;100815.25;5033014;28;20053;-61
2023/07/13 06:08:56;;;;;;;4.70;2.03;;;;;;;17.57;100.00;100814.88;5032933;28;20053;-61
2023/07/13 06:11:25;;;;;;;5.32;1.60;;;;;;;17.61;100.00;100809.88;5031360;28;20045;-62
2023/07/13 06:13:51;;;;;;;5.93;1.83;;;;;;;17.57;100.00;100812.16;5033391;28;20050;-61
2023/07/13 06:16:18;;;;;;;3.67;1.83;;;;;;;17.69;100.00;100804.28;5032393;28;20045;-62
2023/07/13 06:18:45;;;;;;;5.13;1.73;;;;;;;17.77;100.00;100812.22;5032778;28;20533;-62
2023/07/13 06:21:15;;;;;;;3.80;2.08;;;;;;;17.80;100.00;100802.84;5033501;28;20046;-60
2023/07/13 06:23:42;;;;;;;4.25;1.40;;;;;;;17.83;100.00;100800.53;5032517;28;20107;-61
2023/07/13 06:26:09;;;;;;;5.38;2.08;;;;;;;17.89;100.00;100793.47;5032587;28;20045;-61
2023/07/13 06:28:37;;;;;;;5.57;1.95;;;;;;;17.98;100.00;100802.22;5031799;28;20456;-61
2023/07/13 06:31:08;;;;;;;6.20;1.90;;;;;;;18.01;100.00;100801.81;5022859;28;20053;-62
2023/07/13 06:33:37;;;;;;;7.28;1.50;;;;;;;18.05;100.00;100801.19;5012600;28;20046;-62
2023/07/13 06:36:05;;;;;;;6.93;2.13;;;;;;;18.08;100.00;100800.78;5012831;28;20049;-62
2023/07/13 06:38:32;;;;;;;4.93;1.55;;;;;;;18.13;100.00;100799.31;5012436;28;20552;-62
2023/07/13 06:40:58;;;;;;;4.85;1.73;;;;;;;18.22;100.00;100801.66;5011927;28;20567;-63
2023/07/13 06:43:25;;;;;;;7.95;1.83;;;;;;;18.25;100.00;100801.22;5010998;28;20049;-62
2023/07/13 06:45:55;;;;;;;6.18;1.73;;;;;;;18.33;100.00;100796.63;5011499;28;20084;-62
2023/07/13 06:48:21;;;;;;;6.65;2.03;;;;;;;18.27;100.00;100801.00;5012189;28;20050;-64
2023/07/13 06:50:50;;;;;;;3.35;1.77;;;;;;;18.27;100.00;100806.44;5011870;28;20414;-64
2023/07/13 06:53:18;;;;;;;4.47;1.80;;;;;;;18.37;100.00;100812.28;5012207;28;20425;-62
2023/07/13 06:55:45;;;;;;;7.30;2.15;;;;;;;18.44;100.00;100799.53;5011880;28;20417;-62
2023/07/13 06:58:13;;;;;;;4.20;1.50;;;;;;;18.45;100.00;100803.94;5011562;28;20050;-63
2023/07/13 07:00:40;;;;;;;3.65;1.60;;;;;;;18.59;100.00;100798.50;5011318;28;20508;-63
2023/07/13 07:03:06;;;;;;;7.18;1.92;;;;;;;18.54;100.00;100799.94;5011305;28;20052;-62
2023/07/13 07:05:33;;;;;;;2.58;1.30;;;;;;;18.61;100.00;100805.38;5011739;28;20060;-62
2023/07/13 07:08:00;;;;;;;7.07;1.23;;;;;;;18.79;100.00;100799.28;5011708;28;20100;-62
2023/07/13 07:10:29;;;;;;;8.05;1.52;;;;;;;18.85;100.00;100803.88;5010945;28;20498;-61
2023/07/13 07:12:56;;;;;;;6.90;1.58;;;;;;;19.01;100.00;100803.44;5011000;28;20461;-61
2023/07/13 07:15:23;;;;;;;6.53;1.35;;;;;;;19.14;100.00;100798.97;5011818;28;20045;-62
2023/07/13 07:17:49;;;;;;;3.55;1.30;;;;;;;19.24;100.00;100797.50;5011718;28;20053;-62
2023/07/13 07:20:16;;;;;;;8.60;2.45;;;;;;;19.49;100.00;100811.19;5008539;28;20107;-62
2023/07/13 07:22:42;;;;;;;2.75;1.67;;;;;;;19.64;97.77;100802.72;5011544;28;20049;-62
2023/07/13 07:25:09;;;;;;;6.13;1.15;;;;;;;19.78;94.72;100808.13;5011394;28;20129;-61
2023/07/13 07:27:36;;;;;;;7.35;2.00;;;;;;;20.08;89.20;100809.19;5011037;28;20077;-61
2023/07/13 07:30:06;;;;;;;5.88;1.98;;;;;;;20.41;84.02;100811.63;5011337;28;20461;-62
2023/07/13 07:32:35;;;;;;;7.13;1.55;;;;;;;20.87;78.28;100818.53;5031578;28;20099;-61
2023/07/13 07:35:05;;;;;;;4.43;1.48;;;;;;;21.37;75.26;100812.94;5031341;28;20497;-61
2023/07/13 07:37:32;;;;;;;3.13;1.50;;;;;;;21.66;70.78;100818.63;5031014;28;20041;-61
2023/07/13 07:40:02;;;;;;;6.05;1.25;;;;;;;21.71;68.16;100812.50;5030326;28;20072;-61
2023/07/13 07:42:31;;;;;;;5.32;1.20;;;;;;;21.54;68.60;100815.88;5030905;28;20551;-60
2023/07/13 07:44:58;;;;;;;3.15;1.30;;;;;;;21.28;69.67;100814.31;5031512;28;20049;-61
2023/07/13 07:47:25;;;;;;;4.05;0.93;;;;;;;21.17;69.51;100815.06;5031533;28;20049;-61
2023/07/13 07:49:52;;;;;;;4.22;1.27;;;;;;;21.05;70.09;100823.16;5031697;28;20056;-61
2023/07/13 07:52:18;;;;;;;2.65;1.05;;;;;;;20.90;71.67;100822.69;5028185;28;20556;-61
2023/07/13 07:54:45;;;;;;;2.72;1.20;;;;;;;20.72;72.79;100819.97;5030712;28;20057;-61
2023/07/13 07:57:14;;;;;;;5.82;1.10;;;;;;;20.62;70.82;100825.91;5030768;28;20485;-61
2023/07/13 08:00:01;;;;;;;2.58;1.00;;;;;;;20.43;70.99;100820.44;5029932;28;20060;-59
2023/07/13 08:02:30;;;;;;;2.53;1.00;;;;;;;20.26;72.70;100827.47;5030784;28;20065;-61
2023/07/13 08:04:59;;;;;;;8.27;1.63;;;;;;;20.34;73.63;100834.53;5031371;28;20068;-61
2023/07/13 08:07:32;;;;;;;3.38;1.30;;;;;;;20.36;73.24;100827.81;5031070;28;20069;-61
2023/07/13 08:09:59;;;;;;;5.07;1.38;;;;;;;20.69;72.23;100837.59;5030727;28;20054;-61
2023/07/13 08:12:25;;;;;;;3.50;1.40;;;;;;;21.04;69.89;100823.38;5031329;28;20124;-62
2023/07/13 08:14:57;;;;;;;4.80;1.23;;;;;;;21.21;68.04;100831.81;5031209;28;20084;-61
2023/07/13 08:17:24;;;;;;;1.77;1.00;;;;;;;21.09;68.10;100832.56;5028923;28;20049;-61
2023/07/13 08:19:51;;;;;;;5.18;1.30;;;;;;;20.83;68.22;100830.94;5030610;28;20049;-61
2023/07/13 08:22:17;;;;;;;3.45;1.20;;;;;;;21.02;67.81;100829.06;5028467;28;20416;-61
2023/07/13 08:24:45;;;;;;;9.48;1.45;;;;;;;20.94;67.61;100831.25;5030123;28;20045;-62
2023/07/13 08:27:11;;;;;;;3.13;1.10;;;;;;;21.11;66.61;100832.34;5030368;28;20045;-61
2023/07/13 08:29:38;;;;;;;2.58;1.13;;;;;;;21.14;66.69;100840.09;5030242;28;20095;-60
2023/07/13 08:32:09;;;;;;;5.57;1.38;;;;;;;21.02;66.64;100847.34;5012394;28;20123;-62
2023/07/13 08:34:36;;;;;;;2.25;1.00;;;;;;;21.09;66.72;100839.91;5011172;28;20128;-60
2023/07/13 08:37:02;;;;;;;3.38;1.45;;;;;;;21.08;67.40;100844.53;5010177;28;20452;-61
2023/07/13 08:39:32;;;;;;;4.68;1.38;;;;;;;21.09;67.29;100845.38;5010281;28;20052;-61
2023/07/13 08:42:11;;;;;;;6.00;1.60;;;;;;;21.02;67.48;100834.53;5010577;28;20107;-62
2023/07/13 08:44:50;;;;;;;7.45;1.48;;;;;;;20.80;68.67;100846.91;5010448;28;20046;-62
2023/07/13 08:47:20;;;;;;;3.92;1.48;;;;;;;20.87;67.61;100836.78;5010177;28;20061;-63
2023/07/13 08:49:47;;;;;;;5.82;1.30;;;;;;;21.03;67.52;100844.38;5010762;28;20082;-62
2023/07/13 08:52:29;;;;;;;5.60;1.30;;;;;;;21.16;66.30;100846.16;5010916;28;20097;-62
2023/07/13 08:54:57;;;;;;;5.03;1.60;;;;;;;21.84;63.05;100845.94;5010108;28;20104;-62
2023/07/13 08:57:31;;;;;;;9.93;1.48;;;;;;;22.68;58.21;100842.31;5010256;28;20103;-61
2023/07/13 08:59:58;;;;;;;2.28;1.10;;;;;;;23.45;55.20;100836.59;5010319;28;20429;-61
2023/07/13 09:02:39;;;;;;;5.75;1.40;;;;;;;23.66;53.75;100841.41;5010008;28;20116;-63
2023/07/13 09:05:12;;;;;;;5.82;1.23;;;;;;;23.88;52.13;100838.00;5010685;28;20046;-62
2023/07/13 09:08:07;;;;;;;4.50;1.40;;;;;;;24.11;51.21;100843.34;5009500;28;20469;-61
2023/07/13 09:10:41;;;;;;;9.50;1.45;;;;;;;24.17;50.43;100834.13;5009349;28;20041;-61
2023/07/13 09:13:15;;;;;;;6.75;1.55;;;;;;;24.20;49.12;100839.13;5010399;28;20494;-63
2023/07/13 09:15:48;;;;;;;5.18;1.17;;;;;;;24.74;48.34;100840.53;5010616;28;20151;-62
2023/07/13 09:18:28;;;;;;;7.40;1.20;;;;;;;24.99;47.46;100840.06;5010213;28;20124;-62
2023/07/13 09:21:16;;;;;;;3.78;1.23;;;;;;;25.33;45.83;100835.31;5010744;28;20041;-62
2023/07/13 09:23:43;;;;;;;3.85;1.38;;;;;;;25.67;44.08;100837.94;5009189;28;20398;-62
2023/07/13 09:26:15;;;;;;;7.50;1.50;;;;;;;25.84;43.49;100833.16;5010230;28;20417;-64
2023/07/13 09:28:45;;;;;;;6.68;1.67;;;;;;;25.64;43.21;100838.44;5010022;28;20405;-64
2023/07/13 09:31:47;;;;;;;7.82;1.65;;;;;;;25.94;42.09;100824.19;5024938;28;20056;-64
2023/07/13 09:34:14;;;;;;;3.78;1.25;;;;;;;26.25;41.61;100828.91;5021426;28;20079;-61
2023/07/13 09:36:40;;;;;;;5.65;1.45;;;;;;;26.41;41.49;100832.59;5030794;28;20475;-63
2023/07/13 09:39:07;;;;;;;3.95;1.17;;;;;;;26.65;41.56;100830.28;5034154;28;20115;-62
2023/07/13 09:42:01;;;;;;;4.35;1.52;;;;;;;26.67;41.00;100827.28;5033562;28;20076;-62
2023/07/13 09:44:30;;;;;;;4.50;1.75;;;;;;;26.49;39.14;100840.38;5033568;28;20493;-62
2023/07/13 09:46:58;;;;;;;10.07;2.53;;;;;;;26.16;38.17;100835.09;5033704;28;20555;-63
2023/07/13 09:49:29;;;;;;;4.82;1.85;;;;;;;26.33;38.40;100828.41;5033165;28;20052;-63
2023/07/13 09:52:03;;;;;;;6.57;1.80;;;;;;;25.89;38.48;100841.44;5033534;28;20045;-62
2023/07/13 09:54:34;;;;;;;4.80;1.92;;;;;;;24.97;40.26;100837.59;5033733;28;20049;-63
2023/07/13 09:57:01;;;;;;;;;;;;;;;24.20;42.25;100835.56;5033260;28;20523;-62
2023/07/13 09:59:39;;;;;;;7.20;2.38;;;;;;;23.41;43.31;100829.97;5033490;28;19925;-62
2023/07/13 10:02:35;;;;;;;5.32;2.25;;;;;;;23.14;45.15;100833.25;5033601;28;20103;-62
2023/07/13 10:05:04;;;;;;;9.52;3.08;;;;;;;24.61;43.13;100841.72;5032744;28;20069;-64
2023/07/13 10:07:32;;;;;;;4.78;2.28;;;;;;;25.68;40.15;100837.66;5032981;28;20049;-64
2023/07/13 10:10:00;;;;;;;5.72;2.00;;;;;;;25.05;41.59;100833.59;5031799;28;20053;-65
2023/07/13 10:12:35;;;;;;;5.57;1.70;;;;;;;24.34;42.59;100834.16;5033174;28;20100;-65
2023/07/13 10:15:04;;;;;;;4.05;2.33;;;;;;;24.53;41.39;100832.00;5033118;28;20053;-64
2023/07/13 10:17:50;;;;;;;10.80;2.47;;;;;;;25.60;39.70;100827.97;5033249;28;20049;-63
2023/07/13 10:20:20;;;;;;;4.18;1.85;;;;;;;24.95;41.41;100834.25;5032682;28;20436;-65
2023/07/13 10:23:04;;;;;;;7.90;1.75;;;;;;;23.83;43.09;100832.44;5032785;28;20057;-63
2023/07/13 10:25:37;;;;;;;4.43;1.85;;;;;;;23.46;43.32;100841.00;5032910;28;20053;-66
2023/07/13 10:28:27;;;;;;;3.30;1.50;;;;;;;25.04;40.56;100843.75;5032196;28;20057;-62
2023/07/13 10:30:56;;;;;;;6.88;1.90;;;;;;;26.25;38.49;100844.56;5024986;28;20552;-65
2023/07/13 10:33:23;;;;;;;8.73;1.90;;;;;;;25.34;39.66;100842.50;5013105;28;20041;-64
2023/07/13 10:35:56;;;;;;;5.75;2.00;;;;;;;24.62;40.66;100844.22;5013079;28;20053;-67
2023/07/13 10:38:24;;;;;;;6.85;1.98;;;;;;;25.02;39.88;100845.91;5013175;28;20494;-63
2023/07/13 10:41:03;;;;;;;8.63;1.85;;;;;;;26.46;38.00;100843.63;5012211;28;20065;-65
2023/07/13 10:43:38;;;;;;;8.23;2.05;;;;;;;27.33;36.49;100835.91;5012497;28;20046;-65
2023/07/13 10:46:11;;;;;;;5.43;2.20;;;;;;;28.05;35.36;100833.38;5012518;28;20083;-63
2023/07/13 10:48:41;;;;;;;4.60;1.98;;;;;;;27.53;35.60;100837.09;5012031;28;20056;-65
2023/07/13 10:51:10;;;;;;;9.63;1.77;;;;;;;26.24;36.67;100837.41;5012124;28;20494;-62
2023/07/13 10:53:42;;;;;;;7.97;1.80;;;;;;;25.68;37.77;100837.66;5012638;28;20054;-64
2023/07/13 10:56:29;;;;;;;12.88;2.70;;;;;;;24.66;38.76;100828.91;5013109;28;20048;-63
2023/07/13 10:59:11;;;;;;;4.95;1.83;;;;;;;25.23;38.14;100825.03;5012518;28;20049;-64
2023/07/13 11:01:54;;;;;;;5.97;2.08;;;;;;;25.78;37.38;100825.94;5011902;28;20096;-63
2023/07/13 11:04:21;;;;;;;8.10;2.13;;;;;;;26.66;36.48;100836.63;5011790;28;20466;-62
2023/07/13 11:06:51;;;;;;;6.80;1.80;;;;;;;26.87;35.69;100832.94;5012508;28;20050;-63
2023/07/13 11:09:40;;;;;;;8.18;1.92;;;;;;;26.93;35.32;100823.63;5012099;28;20081;-61
2023/07/13 11:12:44;;;;;;;9.30;1.98;;;;;;;26.66;31.08;100833.88;5012002;28;20058;-62
2023/07/13 11:15:12;;;;;;;8.40;1.98;;;;;;;26.67;33.82;100825.34;5012738;28;20181;-63
2023/07/13 11:17:59;;;;;;;4.07;1.75;;;;;;;26.83;34.25;100826.31;5012409;28;20042;-62
2023/07/13 11:20:39;;;;;;;7.72;1.83;;;;;;;26.61;34.60;100825.56;5011455;28;20457;-61
2023/07/13 11:23:18;;;;;;;8.52;2.40;;;;;;;26.34;35.24;100831.97;5011664;28;20053;-63
2023/07/13 11:25:45;;;;;;;6.07;1.90;;;;;;;26.25;35.49;100828.06;5011551;28;20128;-61
2023/07/13 11:28:12;;;;;;;4.15;1.70;;;;;;;25.37;36.71;100828.22;5012098;28;20064;-62
2023/07/13 11:30:56;;;;;;;4.05;2.05;;;;;;;24.66;37.86;100823.41;5017439;28;20050;-61
2023/07/13 11:33:38;;;;;;;4.47;1.92;;;;;;;24.60;38.47;100820.84;5031529;28;20041;-62
2023/07/13 11:36:14;;;;;;;5.95;2.00;;;;;;;24.34;39.32;100816.88;5031719;28;20053;-62